메인 페이지
METAR-TAF:

METAR-TAF

공항 :

Theodore Francis Green State Airport

프로비던스, 로드아일랜드, 미국

위도: 41-43-26N, 경도: 071-25-41W, 고도: 16m

현재 날씨관측

예보는 1 시간 17분 전, 19:51시(UTC)에 발표되었습니다.
서북서6kt
온도 3°C
습도 30%
기압 1024 hPa
시정: 16.1km
맑음

METAR: KPVD 071951Z 29006KT 10SM CLR 03/M13 A3024 RMK AO2 SLP241 T00281133

시각: 16:08 (21:08 UTC)

예보

예보는 23분 전, 20:45시(UTC)에 발표되었습니다.
예보 대상 시간: 07일 21시부터 08일 18시까지 (UTC)
북서8kt
시정: 10km
맑음
07일 2300시부터 (UTC)
북북서6kt
시정: 10km
맑음

TAF: KPVD 072045Z 0721/0818 31008KT P6SM SKC FM072300 34006KT P6SM SKC

4,000개 이상의 공항 관측 자료 및 예보 (METAR 및 TAF 보고).

지도상에서 검색 가능한 기상관측소가 노란 점과 빨간 점으로 표시되어 있습니다.

기상관측소 명을 보려면 표시 위로 마우스를 이동하세요.

날씨 관측과 예보를 보려면 클릭하세요.

지도 변경 : 확대하려면 엑스 표시가 있는 녹색 버튼, 축소하려면 빼기 표시가 있는 녹색 버튼, 다음 페이지의 지도를 보려면 녹색 화살표를 클릭하세요.


METAR-TAF: